createdAt,value
2019-05-18T00:01:06.802Z,23.83
2019-05-18T00:03:34.661Z,23.30
2019-05-18T00:06:02.545Z,23.77
2019-05-18T00:08:30.316Z,24.63
2019-05-18T00:10:58.175Z,23.97
2019-05-18T00:13:26.080Z,22.27
2019-05-18T00:15:53.915Z,23.90
2019-05-18T00:18:21.684Z,24.47
2019-05-18T00:20:49.510Z,24.03
2019-05-18T00:23:17.310Z,24.10
2019-05-18T00:25:45.220Z,22.33
2019-05-18T00:28:13.018Z,25.30
2019-05-18T00:30:40.889Z,23.93
2019-05-18T00:33:08.704Z,23.80
2019-05-18T00:35:36.545Z,25.20
2019-05-18T00:38:04.313Z,23.47
2019-05-18T00:40:32.100Z,26.70
2019-05-18T00:42:59.942Z,23.67
2019-05-18T00:45:27.797Z,26.47
2019-05-18T00:47:55.667Z,23.87
2019-05-18T00:50:23.468Z,21.13
2019-05-18T00:52:51.300Z,24.07
2019-05-18T00:55:19.222Z,26.73
2019-05-18T00:57:49.071Z,22.67
2019-05-18T01:00:17.454Z,21.37
2019-05-18T01:02:45.308Z,23.23
2019-05-18T01:05:13.178Z,22.57
2019-05-18T01:07:40.993Z,21.67
2019-05-18T01:10:09.496Z,21.63
2019-05-18T01:12:37.283Z,22.63
2019-05-18T01:15:06.258Z,22.23
2019-05-18T01:17:34.053Z,21.07
2019-05-18T01:20:01.827Z,20.33
2019-05-18T01:22:29.602Z,19.43
2019-05-18T01:24:57.378Z,18.87
2019-05-18T01:27:25.214Z,20.03
2019-05-18T01:29:53.038Z,19.90
2019-05-18T01:32:20.812Z,21.47
2019-05-18T01:34:48.575Z,19.83
2019-05-18T01:37:16.382Z,20.80
2019-05-18T01:39:44.158Z,19.43
2019-05-18T01:42:11.954Z,19.60
2019-05-18T01:44:39.753Z,19.07
2019-05-18T01:47:07.525Z,18.70
2019-05-18T01:49:35.538Z,17.97
2019-05-18T01:52:03.439Z,18.80
2019-05-18T01:54:31.481Z,20.53
2019-05-18T01:57:01.371Z,16.97
2019-05-18T01:59:28.973Z,17.03
2019-05-18T02:01:56.735Z,16.77
2019-05-18T02:04:24.522Z,16.47
2019-05-18T02:06:52.679Z,19.33
2019-05-18T02:09:20.490Z,16.57
2019-05-18T02:11:48.339Z,17.33
2019-05-18T02:14:16.183Z,16.03
2019-05-18T02:16:43.964Z,14.67
2019-05-18T02:19:11.743Z,16.47
2019-05-18T02:21:39.622Z,14.93
2019-05-18T02:24:07.433Z,15.23
2019-05-18T02:26:35.197Z,16.63
2019-05-18T02:29:03.005Z,15.30
2019-05-18T02:31:30.814Z,16.43
2019-05-18T02:33:58.650Z,16.73
2019-05-18T02:36:26.401Z,16.67
2019-05-18T02:38:54.188Z,16.10
2019-05-18T02:41:21.978Z,15.73
2019-05-18T02:43:49.782Z,16.27
2019-05-18T02:46:17.578Z,15.87
2019-05-18T02:48:50.158Z,16.20
2019-05-18T02:51:15.020Z,15.63
2019-05-18T02:53:42.825Z,14.73
2019-05-18T02:56:10.606Z,14.67
2019-05-18T02:58:38.418Z,14.90
2019-05-18T03:01:06.333Z,14.53
2019-05-18T03:03:34.171Z,14.20
2019-05-18T03:06:02.125Z,14.87
2019-05-18T03:08:29.940Z,13.93
2019-05-18T03:10:57.683Z,13.43
2019-05-18T03:13:25.596Z,15.47
2019-05-18T03:15:53.387Z,13.80
2019-05-18T03:18:21.139Z,15.43
2019-05-18T03:20:48.972Z,13.73
2019-05-18T03:23:16.763Z,15.90
2019-05-18T03:25:44.610Z,13.97
2019-05-18T03:28:12.394Z,14.73
2019-05-18T03:30:40.178Z,13.20
2019-05-18T03:33:07.957Z,13.17
2019-05-18T03:35:35.835Z,14.80
2019-05-18T03:38:03.604Z,12.30
2019-05-18T03:40:31.711Z,12.57
2019-05-18T03:42:59.571Z,13.63
2019-05-18T03:45:27.606Z,12.90
2019-05-18T03:47:55.394Z,13.43
2019-05-18T03:50:23.190Z,14.27
2019-05-18T03:52:51.015Z,12.33
2019-05-18T03:55:18.801Z,12.97
2019-05-18T03:57:46.613Z,15.97
2019-05-18T04:00:14.795Z,14.10
2019-05-18T04:02:42.545Z,14.43
2019-05-18T04:05:10.575Z,14.23
2019-05-18T04:07:38.385Z,14.57
2019-05-18T04:10:06.642Z,13.23
2019-05-18T04:12:34.477Z,14.17
2019-05-18T04:15:02.396Z,15.30
2019-05-18T04:17:30.319Z,14.07
2019-05-18T04:19:58.105Z,16.80
2019-05-18T04:22:25.895Z,14.60
2019-05-18T04:24:53.712Z,13.67
2019-05-18T04:27:21.529Z,13.23
2019-05-18T04:29:49.334Z,12.90
2019-05-18T04:32:17.143Z,12.87
2019-05-18T04:34:44.949Z,13.10
2019-05-18T04:37:12.788Z,15.87
2019-05-18T04:39:40.562Z,14.27
2019-05-18T04:42:08.353Z,14.30
2019-05-18T04:44:36.154Z,15.17
2019-05-18T04:47:03.914Z,15.73
2019-05-18T04:49:31.720Z,13.70
2019-05-18T04:51:59.496Z,13.87
2019-05-18T04:54:27.257Z,15.07
2019-05-18T04:56:55.093Z,16.17
2019-05-18T04:59:22.920Z,14.27
2019-05-18T05:01:50.992Z,16.87
2019-05-18T05:04:18.866Z,15.67
2019-05-18T05:06:46.661Z,15.67
2019-05-18T05:09:14.447Z,15.63
2019-05-18T05:11:42.287Z,15.53
2019-05-18T05:14:10.072Z,14.47
2019-05-18T05:16:37.922Z,13.90
2019-05-18T05:19:08.656Z,16.40
2019-05-18T05:21:35.496Z,14.60
2019-05-18T05:24:03.267Z,14.53
2019-05-18T05:26:31.097Z,14.10
2019-05-18T05:28:59.676Z,13.17
2019-05-18T05:31:27.498Z,13.40
2019-05-18T05:33:55.289Z,12.23
2019-05-18T05:36:23.099Z,12.80
2019-05-18T05:38:50.883Z,13.50
2019-05-18T05:41:18.732Z,13.30
2019-05-18T05:43:46.537Z,13.07
2019-05-18T05:46:14.315Z,12.23
2019-05-18T05:48:42.114Z,12.27
2019-05-18T05:51:10.131Z,11.63
2019-05-18T05:53:37.957Z,11.47
2019-05-18T05:56:05.757Z,11.50
2019-05-18T05:58:33.557Z,11.93
2019-05-18T06:01:01.320Z,11.50
2019-05-18T06:03:29.143Z,11.50
2019-05-18T06:05:56.951Z,11.30
2019-05-18T06:08:24.862Z,11.17
2019-05-18T06:10:52.667Z,11.97
2019-05-18T06:13:20.483Z,10.37
2019-05-18T06:15:48.282Z,11.40
2019-05-18T06:18:16.125Z,9.47
2019-05-18T06:20:51.658Z,9.90
2019-05-18T06:23:13.735Z,10.40
2019-05-18T06:25:41.608Z,9.50
2019-05-18T06:28:09.462Z,10.43
2019-05-18T06:30:37.331Z,9.63
2019-05-18T06:33:05.171Z,10.30
2019-05-18T06:35:33.001Z,10.13
2019-05-18T06:38:00.813Z,9.70
2019-05-18T06:40:28.607Z,10.60
2019-05-18T06:42:56.495Z,9.85
2019-05-18T06:45:24.332Z,8.95
2019-05-18T06:47:52.181Z,10.60
2019-05-18T06:50:28.494Z,10.35
2019-05-18T06:52:56.509Z,10.13
2019-05-18T06:55:25.407Z,9.80
2019-05-18T06:57:59.000Z,10.15
2019-05-18T07:00:26.873Z,9.23
2019-05-18T07:02:54.807Z,9.68
2019-05-18T07:05:22.777Z,9.38
2019-05-18T07:07:50.591Z,9.35
2019-05-18T07:10:18.535Z,9.53
2019-05-18T07:12:46.488Z,9.78
2019-05-18T07:15:15.670Z,10.90
2019-05-18T07:17:43.677Z,9.08
2019-05-18T07:20:11.901Z,10.15
2019-05-18T07:22:39.717Z,8.48
2019-05-18T07:25:08.313Z,8.73
2019-05-18T07:27:36.134Z,9.48
2019-05-18T07:30:04.552Z,7.62
2019-05-18T07:32:32.346Z,9.13
2019-05-18T07:35:00.290Z,8.68
2019-05-18T07:37:28.087Z,7.28
2019-05-18T07:39:56.025Z,7.62
2019-05-18T07:42:23.832Z,8.25
2019-05-18T07:44:51.655Z,8.68
2019-05-18T07:47:19.445Z,7.40
2019-05-18T07:49:47.412Z,8.88
2019-05-18T07:52:17.278Z,8.00
2019-05-18T07:54:45.007Z,8.33
2019-05-18T07:57:12.862Z,8.70
2019-05-18T07:59:40.719Z,8.58
2019-05-18T08:02:08.526Z,8.40
2019-05-18T08:04:39.708Z,8.20
2019-05-18T08:07:06.247Z,7.80
2019-05-18T08:09:34.017Z,7.83
2019-05-18T08:12:01.822Z,8.90
2019-05-18T08:14:29.807Z,7.53
2019-05-18T08:16:57.605Z,7.62
2019-05-18T08:19:25.416Z,8.08
2019-05-18T08:21:53.857Z,6.78
2019-05-18T08:24:21.723Z,7.90
2019-05-18T08:26:49.679Z,10.95
2019-05-18T08:29:17.629Z,9.28
2019-05-18T08:31:45.459Z,8.30
2019-05-18T08:34:13.492Z,9.30
2019-05-18T08:36:41.535Z,8.03
2019-05-18T08:39:09.363Z,7.65
2019-05-18T08:41:38.018Z,8.63
2019-05-18T08:44:05.790Z,10.32
2019-05-18T08:46:33.794Z,8.28
2019-05-18T08:49:01.845Z,7.85
2019-05-18T08:51:29.714Z,9.25
2019-05-18T08:53:57.517Z,9.20
2019-05-18T08:56:25.321Z,8.38
2019-05-18T08:58:53.098Z,10.18
2019-05-18T09:01:20.927Z,8.13
2019-05-18T09:03:48.726Z,8.93
2019-05-18T09:06:16.586Z,9.25
2019-05-18T09:08:44.384Z,8.88
2019-05-18T09:11:12.352Z,7.67
2019-05-18T09:13:40.131Z,9.30
2019-05-18T09:16:08.132Z,9.70
2019-05-18T09:18:35.945Z,8.15
2019-05-18T09:21:03.755Z,10.55
2019-05-18T09:23:31.530Z,8.58
2019-05-18T09:25:59.618Z,8.53
2019-05-18T09:28:27.504Z,7.00
2019-05-18T09:30:55.510Z,8.65
2019-05-18T09:33:23.303Z,7.53
2019-05-18T09:35:51.312Z,7.20
2019-05-18T09:38:19.083Z,7.40
2019-05-18T09:40:46.957Z,7.90
2019-05-18T09:43:14.846Z,7.50
2019-05-18T09:45:42.810Z,7.42
2019-05-18T09:48:10.621Z,7.67
2019-05-18T09:50:38.634Z,7.60
2019-05-18T09:53:06.474Z,7.95
2019-05-18T09:55:34.512Z,7.03
2019-05-18T09:58:02.459Z,6.97
2019-05-18T10:00:37.794Z,7.72
2019-05-18T10:03:00.416Z,8.38
2019-05-18T10:05:28.366Z,8.38
2019-05-18T10:07:56.539Z,8.28
2019-05-18T10:10:24.343Z,7.12
2019-05-18T10:12:52.299Z,8.03
2019-05-18T10:15:20.452Z,8.43
2019-05-18T10:17:48.459Z,7.67
2019-05-18T10:20:16.656Z,7.42
2019-05-18T10:22:55.435Z,7.05
2019-05-18T10:25:14.620Z,6.80
2019-05-18T10:27:42.480Z,6.80
2019-05-18T10:30:12.006Z,6.97
2019-05-18T10:32:39.801Z,6.78
2019-05-18T10:35:08.125Z,7.37
2019-05-18T10:37:35.943Z,5.83
2019-05-18T10:40:04.433Z,7.12
2019-05-18T10:42:32.405Z,5.87
2019-05-18T10:45:00.200Z,5.58
2019-05-18T10:47:28.256Z,6.35
2019-05-18T10:49:56.074Z,5.65
2019-05-18T10:52:24.065Z,7.65
2019-05-18T10:54:51.855Z,6.00
2019-05-18T10:57:19.672Z,5.42
2019-05-18T10:59:47.485Z,5.58
2019-05-18T11:02:15.259Z,5.62
2019-05-18T11:04:43.088Z,6.67
2019-05-18T11:07:11.075Z,5.33
2019-05-18T11:09:38.867Z,5.92
2019-05-18T11:12:06.942Z,5.70
2019-05-18T11:14:34.819Z,5.30
2019-05-18T11:17:02.895Z,4.60
2019-05-18T11:19:30.686Z,5.37
2019-05-18T11:21:58.504Z,4.87
2019-05-18T11:24:26.343Z,4.83
2019-05-18T11:26:54.366Z,4.22
2019-05-18T11:29:23.820Z,4.50
2019-05-18T11:31:51.941Z,4.35
2019-05-18T11:34:19.758Z,5.40
2019-05-18T11:36:47.741Z,5.20
2019-05-18T11:39:15.625Z,4.67
2019-05-18T11:41:43.412Z,4.75
2019-05-18T11:44:11.364Z,4.50
2019-05-18T11:46:39.412Z,4.40
2019-05-18T11:49:07.246Z,4.08
2019-05-18T11:51:35.039Z,3.67
2019-05-18T11:54:02.920Z,4.20
2019-05-18T11:56:30.794Z,4.08
2019-05-18T11:58:58.839Z,3.67
2019-05-18T12:01:26.665Z,4.75
2019-05-18T12:03:54.601Z,4.25
2019-05-18T12:06:22.431Z,3.62
2019-05-18T12:08:50.235Z,4.00
2019-05-18T12:11:18.022Z,4.35
2019-05-18T12:13:45.980Z,3.98
2019-05-18T12:16:17.185Z,4.45
2019-05-18T12:18:43.480Z,4.17
2019-05-18T12:21:11.302Z,4.20
2019-05-18T12:23:39.073Z,4.10
2019-05-18T12:26:06.907Z,3.85
2019-05-18T12:28:34.723Z,3.67
2019-05-18T12:31:02.518Z,3.98
2019-05-18T12:33:30.339Z,3.83
2019-05-18T12:35:58.137Z,3.77
2019-05-18T12:38:25.963Z,3.92
2019-05-18T12:40:54.098Z,3.20
2019-05-18T12:43:22.012Z,3.67
2019-05-18T12:45:49.822Z,3.58
2019-05-18T12:48:17.775Z,3.80
2019-05-18T12:50:45.776Z,3.50
2019-05-18T12:53:13.592Z,4.08
2019-05-18T12:55:41.648Z,5.42
2019-05-18T12:58:09.462Z,4.17
2019-05-18T13:00:37.423Z,4.05
2019-05-18T13:03:05.382Z,5.10
2019-05-18T13:05:33.370Z,4.10
2019-05-18T13:08:01.313Z,5.00
2019-05-18T13:10:29.157Z,4.22
2019-05-18T13:12:57.155Z,5.60
2019-05-18T13:15:25.336Z,4.35
2019-05-18T13:17:53.146Z,3.62
2019-05-18T13:20:21.293Z,3.87
2019-05-18T13:22:49.117Z,3.45
2019-05-18T13:25:17.619Z,3.22
2019-05-18T13:27:45.550Z,5.50
2019-05-18T13:30:19.394Z,4.05
2019-05-18T13:32:45.157Z,4.00
2019-05-18T13:35:16.560Z,3.35
2019-05-18T13:37:44.393Z,3.12
2019-05-18T13:40:12.908Z,3.22
2019-05-18T13:42:40.728Z,3.30
2019-05-18T13:45:09.967Z,3.55
2019-05-18T13:47:37.808Z,4.47
2019-05-18T13:50:07.235Z,4.30
2019-05-18T13:52:35.213Z,5.10
2019-05-18T13:55:04.995Z,5.20
2019-05-18T13:57:33.099Z,4.85
2019-05-18T14:00:01.045Z,5.33
2019-05-18T14:02:28.818Z,6.25
2019-05-18T14:04:56.761Z,6.33
2019-05-18T14:07:24.572Z,6.47
2019-05-18T14:09:52.367Z,6.00
2019-05-18T14:12:20.156Z,6.30
2019-05-18T14:14:47.907Z,6.58
2019-05-18T14:17:15.839Z,6.60
2019-05-18T14:19:44.168Z,7.50
2019-05-18T14:22:11.991Z,7.10
2019-05-18T14:24:39.806Z,6.97
2019-05-18T14:27:07.771Z,8.05
2019-05-18T14:29:35.744Z,6.90
2019-05-18T14:32:03.731Z,7.20
2019-05-18T14:34:31.540Z,6.83
2019-05-18T14:36:59.579Z,9.03
2019-05-18T14:39:27.440Z,7.03
2019-05-18T14:41:55.244Z,7.50
2019-05-18T14:44:23.289Z,7.23
2019-05-18T14:46:51.066Z,6.97
2019-05-18T14:49:19.054Z,6.50
2019-05-18T14:51:46.857Z,6.50
2019-05-18T14:54:14.700Z,6.67
2019-05-18T14:56:42.680Z,6.97
2019-05-18T14:59:10.547Z,6.67
2019-05-18T15:01:38.497Z,6.03
2019-05-18T15:04:06.340Z,6.80
2019-05-18T15:06:35.584Z,5.73
2019-05-18T15:09:05.229Z,6.80
2019-05-18T15:11:33.186Z,7.73
2019-05-18T15:14:01.043Z,7.27
2019-05-18T15:16:29.025Z,7.50
2019-05-18T15:18:56.816Z,7.10
2019-05-18T15:21:24.755Z,7.40
2019-05-18T15:23:52.558Z,7.17
2019-05-18T15:26:20.465Z,8.07
2019-05-18T15:28:48.269Z,8.40
2019-05-18T15:31:16.460Z,8.10
2019-05-18T15:33:44.277Z,9.10
2019-05-18T15:36:12.062Z,8.10
2019-05-18T15:38:39.865Z,8.17
2019-05-18T15:41:07.685Z,8.43
2019-05-18T15:43:35.546Z,8.00
2019-05-18T15:46:03.516Z,7.77
2019-05-18T15:48:31.359Z,7.50
2019-05-18T15:50:59.446Z,8.23
2019-05-18T15:53:27.364Z,9.07
2019-05-18T15:56:05.424Z,7.70
2019-05-18T15:58:25.205Z,9.67
2019-05-18T16:00:53.085Z,9.37
2019-05-18T16:03:21.229Z,8.60
2019-05-18T16:05:49.487Z,9.30
2019-05-18T16:08:17.431Z,8.70
2019-05-18T16:10:45.457Z,9.90
2019-05-18T16:13:13.542Z,8.73
2019-05-18T16:15:41.551Z,9.70
2019-05-18T16:18:09.329Z,9.80
2019-05-18T16:20:37.308Z,9.10
2019-05-18T16:23:05.261Z,9.90
2019-05-18T16:25:33.117Z,9.03
2019-05-18T16:28:01.111Z,9.23
2019-05-18T16:30:29.023Z,10.10
2019-05-18T16:32:57.056Z,11.33
2019-05-18T16:35:26.252Z,12.83
2019-05-18T16:37:56.913Z,10.27
2019-05-18T16:40:24.709Z,11.70
2019-05-18T16:42:52.531Z,10.57
2019-05-18T16:45:20.514Z,10.40
2019-05-18T16:47:51.077Z,10.63
2019-05-18T16:50:19.097Z,10.70
2019-05-18T16:52:46.906Z,11.13
2019-05-18T16:55:16.244Z,10.47
2019-05-18T16:57:44.036Z,10.27
2019-05-18T17:00:16.030Z,9.63
2019-05-18T17:02:42.493Z,10.03
2019-05-18T17:05:10.637Z,9.90
2019-05-18T17:07:38.446Z,9.43
2019-05-18T17:10:07.063Z,10.03
2019-05-18T17:12:34.871Z,9.97
2019-05-18T17:15:02.893Z,10.13
2019-05-18T17:17:30.672Z,10.07
2019-05-18T17:19:58.631Z,8.97
2019-05-18T17:22:26.407Z,10.13
2019-05-18T17:24:54.226Z,9.33
2019-05-18T17:27:22.056Z,9.43
2019-05-18T17:29:50.025Z,9.17
2019-05-18T17:32:17.878Z,9.13
2019-05-18T17:34:45.780Z,8.70
2019-05-18T17:37:13.566Z,8.80
2019-05-18T17:39:41.439Z,8.77
2019-05-18T17:42:09.358Z,9.30
2019-05-18T17:44:37.130Z,9.50
2019-05-18T17:47:06.478Z,9.20
2019-05-18T17:49:34.273Z,9.80
2019-05-18T17:52:02.093Z,9.20
2019-05-18T17:54:30.983Z,9.43
2019-05-18T17:57:08.166Z,8.63
2019-05-18T17:59:28.497Z,8.77
2019-05-18T18:01:56.303Z,9.70
2019-05-18T18:04:24.138Z,9.20
2019-05-18T18:06:54.459Z,9.13
2019-05-18T18:09:24.206Z,9.83
2019-05-18T18:11:52.128Z,10.10
2019-05-18T18:14:19.982Z,9.37
2019-05-18T18:16:47.852Z,9.47
2019-05-18T18:19:15.691Z,8.80
2019-05-18T18:21:43.706Z,9.00
2019-05-18T18:24:12.877Z,9.50
2019-05-18T18:26:40.775Z,9.70
2019-05-18T18:29:08.713Z,9.77
2019-05-18T18:31:36.551Z,9.73
2019-05-18T18:34:04.505Z,10.53
2019-05-18T18:36:32.405Z,10.87
2019-05-18T18:39:00.188Z,11.30
2019-05-18T18:41:28.143Z,10.13
2019-05-18T18:43:56.091Z,9.30
2019-05-18T18:46:24.028Z,9.13
2019-05-18T18:48:53.089Z,9.50
2019-05-18T18:51:20.960Z,9.30
2019-05-18T18:53:48.892Z,9.00
2019-05-18T18:56:16.757Z,9.47
2019-05-18T18:58:44.656Z,9.37
2019-05-18T19:01:12.618Z,9.30
2019-05-18T19:03:40.560Z,8.97
2019-05-18T19:06:08.476Z,9.57
2019-05-18T19:08:36.431Z,9.20
2019-05-18T19:11:04.278Z,9.07
2019-05-18T19:13:32.079Z,9.80
2019-05-18T19:16:02.392Z,10.10
2019-05-18T19:18:30.219Z,10.37
2019-05-18T19:20:58.029Z,10.70
2019-05-18T19:23:25.869Z,11.37
2019-05-18T19:25:53.704Z,10.57
2019-05-18T19:28:21.562Z,10.23
2019-05-18T19:30:49.419Z,10.00
2019-05-18T19:33:17.209Z,10.63
2019-05-18T19:35:45.142Z,11.00
2019-05-18T19:38:13.042Z,11.63
2019-05-18T19:40:40.837Z,11.00
2019-05-18T19:43:08.742Z,11.20
2019-05-18T19:45:36.547Z,12.13
2019-05-18T19:48:04.397Z,12.20
2019-05-18T19:50:32.336Z,12.90
2019-05-18T19:53:01.608Z,11.93
2019-05-18T19:55:29.421Z,12.03
2019-05-18T19:58:08.187Z,12.20
2019-05-18T20:00:27.083Z,13.70
2019-05-18T20:02:54.915Z,13.27
2019-05-18T20:05:22.747Z,13.63
2019-05-18T20:07:50.573Z,13.43
2019-05-18T20:10:18.542Z,14.43
2019-05-18T20:12:46.348Z,13.50
2019-05-18T20:15:14.551Z,14.00
2019-05-18T20:17:42.398Z,13.67
2019-05-18T20:20:10.741Z,15.10
2019-05-18T20:22:38.567Z,15.57
2019-05-18T20:25:07.209Z,17.00
2019-05-18T20:27:35.155Z,16.67
2019-05-18T20:30:03.526Z,17.27
2019-05-18T20:32:31.415Z,17.73
2019-05-18T20:34:59.339Z,16.53
2019-05-18T20:37:27.175Z,18.53
2019-05-18T20:39:55.048Z,18.10
2019-05-18T20:42:22.818Z,18.93
2019-05-18T20:44:50.656Z,16.77
2019-05-18T20:47:18.499Z,18.27
2019-05-18T20:49:46.369Z,16.47
2019-05-18T20:52:14.260Z,18.00
2019-05-18T20:54:42.075Z,17.53
2019-05-18T20:57:09.877Z,16.60
2019-05-18T20:59:38.520Z,18.33
2019-05-18T21:02:06.455Z,18.90
2019-05-18T21:04:34.254Z,18.40
2019-05-18T21:07:02.076Z,19.03
2019-05-18T21:09:29.945Z,17.50
2019-05-18T21:11:57.811Z,19.50
2019-05-18T21:14:25.625Z,18.60
2019-05-18T21:16:53.429Z,19.60
2019-05-18T21:19:21.248Z,20.43
2019-05-18T21:21:49.046Z,19.00
2019-05-18T21:24:16.842Z,20.13
2019-05-18T21:26:44.649Z,19.37
2019-05-18T21:29:12.440Z,19.67
2019-05-18T21:31:40.285Z,19.80
2019-05-18T21:34:08.120Z,19.30
2019-05-18T21:36:35.924Z,20.57
2019-05-18T21:39:05.117Z,18.90
2019-05-18T21:41:33.010Z,19.93
2019-05-18T21:44:00.936Z,21.77
2019-05-18T21:46:28.809Z,20.07
2019-05-18T21:48:56.624Z,19.93
2019-05-18T21:51:24.406Z,21.83
2019-05-18T21:53:52.192Z,20.10
2019-05-18T21:56:19.976Z,20.30
2019-05-18T21:58:47.755Z,20.97
2019-05-18T22:01:15.803Z,21.00
2019-05-18T22:03:47.868Z,20.97
2019-05-18T22:06:13.353Z,21.77
2019-05-18T22:08:41.212Z,22.60
2019-05-18T22:11:09.040Z,23.23
2019-05-18T22:13:36.840Z,21.57
2019-05-18T22:16:04.692Z,24.37
2019-05-18T22:18:32.538Z,26.30
2019-05-18T22:21:00.370Z,24.63
2019-05-18T22:23:28.150Z,26.67
2019-05-18T22:25:57.134Z,24.30
2019-05-18T22:28:25.134Z,26.67
2019-05-18T22:30:52.967Z,25.27
2019-05-18T22:33:20.782Z,26.20
2019-05-18T22:35:48.600Z,25.80
2019-05-18T22:38:16.409Z,25.90
2019-05-18T22:40:44.200Z,27.70
2019-05-18T22:43:12.008Z,29.23
2019-05-18T22:45:39.790Z,29.23
2019-05-18T22:48:07.703Z,27.73
2019-05-18T22:50:35.460Z,27.67
2019-05-18T22:53:03.307Z,28.43
2019-05-18T22:55:31.064Z,27.87
2019-05-18T22:57:59.026Z,28.63
2019-05-18T23:00:26.826Z,30.53
2019-05-18T23:02:54.664Z,28.33
2019-05-18T23:05:22.459Z,28.30
2019-05-18T23:07:50.293Z,31.80
2019-05-18T23:10:18.112Z,29.47
2019-05-18T23:12:45.953Z,36.23
2019-05-18T23:15:14.058Z,33.03
2019-05-18T23:17:45.054Z,33.13
2019-05-18T23:20:13.117Z,32.03
2019-05-18T23:22:40.918Z,30.70
2019-05-18T23:25:09.029Z,32.00
2019-05-18T23:27:36.839Z,33.17
2019-05-18T23:30:04.997Z,34.03
2019-05-18T23:32:32.824Z,33.83
2019-05-18T23:35:00.723Z,29.20
2019-05-18T23:37:28.567Z,31.53
2019-05-18T23:40:00.685Z,30.77
2019-05-18T23:42:28.525Z,32.80
2019-05-18T23:44:56.332Z,29.97
2019-05-18T23:47:24.135Z,27.97
2019-05-18T23:49:52.006Z,29.43
2019-05-18T23:52:19.871Z,29.83
2019-05-18T23:54:47.673Z,29.90
2019-05-18T23:57:15.475Z,30.17
2019-05-18T23:59:43.317Z,28.97
